Página principal
METAR-TAF:

METAR-TAF

Aeroportos :

Aeroporto Internacional de Pequim-Capital

Pequim, China

latitude: 39-56N, longitude: 116-17E, altura: 55 m

Observação actual do tempo

O boletim foi feito há 26 minutos, às 09:00 UTC
Vento 12 kt de sul
Temperatura 33°C
Humidade 14%
Pressão 1002 hPa
Visibilidade 10 km ou mais
Nuvens dispersasa uma altura de 4000 ft

METAR: ZBAA 270900Z 17006MPS 9999 SCT040 33/02 Q1002 NOSIG

Hora: 17:26 (09:26 UTC)

Previsão

O boletim foi feito há 6 horas e 6 minutos, às 03:20 UTC
Previsão válida de 27 às 06 UTC a 28 às 06 UTC
Vento 8 kt de sul
Visibilidade 10 km ou mais
sem nuvens abaixo de 1500 metros e sem cumulonimbus
Tornando-se
de 27 às 21 UTC a 27 às 22 UTC
Vento 12 kt de nor-noroeste

TAF: ZBAA 270320Z 2706/2806 18004MPS CAVOK TX34/2707Z TN16/2721Z BECMG 2721/2722 33006MPS

Observações e previsões do tempo de mais de 4000 aeroportos (mensagens METAR e TAF).

As estações disponíveis são os pontos amarelos e vermelhos sobre o mapa.

Mova o rato sobre o mapa para ver o nome da estação.

Depois clique no ponto para visualizar as observações e previsões meteorológicas.

Para alterar o mapa : clique nos botões verdes com uma cruz preta para aumentar o zoom; no botão verde com uma pitada de zoom; ou nas setas verdes para mapas adjacentes.


METAR-TAF: